Time;durP1;ratioP1;P1;durP2;ratioP2;P2;SDS_P1;SDS_P2;PMS_P1;PMS_P2;Temp;Humidity;BMP_temperature;BMP_pressure;BME280_temperature;BME280_humidity;BME280_pressure;Samples;Min_cycle;Max_cycle;Signal;HPM_P1;HPM_P2
2021/11/13 00:00:40;;;;;;;;;;;15.50;77.60;;;;;;4248802;27;19979;-67
2021/11/13 00:02:44;;;;;;;;;;;15.50;77.70;;;;;;4259301;27;19947;-70
2021/11/13 00:04:46;;;;;;;;;;;15.50;77.70;;;;;;4250622;27;19924;-68
2021/11/13 00:06:49;;;;;;;;;;;15.50;77.70;;;;;;4250444;27;19919;-68
2021/11/13 00:08:52;;;;;;;;;;;15.50;77.80;;;;;;4260806;27;19919;-69
2021/11/13 00:10:54;;;;;;;;;;;15.40;77.80;;;;;;4231938;28;19971;-66
2021/11/13 00:12:59;;;;;;;;;;;15.40;78.00;;;;;;4259487;27;19961;-68
2021/11/13 00:15:02;;;;;;;;;;;15.50;78.00;;;;;;4251965;27;19919;-68
2021/11/13 00:17:05;;;;;;;;;;;15.50;77.90;;;;;;4252238;27;19923;-69
2021/11/13 00:19:09;;;;;;;;;;;15.50;78.10;;;;;;4255033;27;19931;-68
2021/11/13 00:21:12;;;;;;;;;;;15.50;78.10;;;;;;4265644;27;19948;-67
2021/11/13 00:23:15;;;;;;;;;;;15.40;78.10;;;;;;4256198;27;20359;-67
2021/11/13 00:25:17;;;;;;;;;;;15.40;78.10;;;;;;4262934;27;20275;-66
2021/11/13 00:27:20;;;;;;;;;;;15.50;78.20;;;;;;4263990;27;19920;-70
2021/11/13 00:29:23;;;;;;;;;;;15.40;78.10;;;;;;4256921;27;19930;-73
2021/11/13 00:31:26;;;;;;;;;;;15.40;78.20;;;;;;4268477;27;20360;-68
2021/11/13 00:33:28;;;;;;;;;;;15.40;78.10;;;;;;4257139;27;20297;-68
2021/11/13 00:35:33;;;;;;;;;;;15.40;78.00;;;;;;4261064;27;19964;-68
2021/11/13 00:37:35;;;;;;;;;;;15.40;78.00;;;;;;4255986;27;20298;-70
2021/11/13 00:39:38;;;;;;;;;;;15.40;77.90;;;;;;4259552;27;19919;-71
2021/11/13 00:41:40;;;;;;;;;;;15.40;77.80;;;;;;4248210;27;19926;-68
2021/11/13 00:43:43;;;;;;;;;;;15.40;77.80;;;;;;4251293;27;19968;-66
2021/11/13 00:45:46;;;;;;;;;;;15.40;77.70;;;;;;4252703;27;19922;-67
2021/11/13 00:47:49;;;;;;;;;;;15.40;77.60;;;;;;4248986;27;19923;-66
2021/11/13 00:49:52;;;;;;;;;;;15.40;77.70;;;;;;4253594;27;19942;-69
2021/11/13 00:51:56;;;;;;;;;;;15.40;77.60;;;;;;4253096;27;19920;-69
2021/11/13 00:53:59;;;;;;;;;;;15.40;77.50;;;;;;4251987;27;19994;-70
2021/11/13 00:56:02;;;;;;;;;;;15.40;77.80;;;;;;4260099;27;20363;-68
2021/11/13 00:58:04;;;;;;;;;;;15.40;78.10;;;;;;4246387;27;19919;-67
2021/11/13 01:00:08;;;;;;;;;;;15.40;78.20;;;;;;4259490;27;19923;-68
2021/11/13 01:02:11;;;;;;;;;;;15.40;78.30;;;;;;4249128;27;19927;-68
2021/11/13 01:04:14;;;;;;;;;;;15.40;78.30;;;;;;4253497;27;19919;-68
2021/11/13 01:06:16;;;;;;;;;;;15.40;78.20;;;;;;4254336;27;19933;-67
2021/11/13 01:08:20;;;;;;;;;;;15.40;78.20;;;;;;4248242;27;19920;-70
2021/11/13 01:10:23;;;;;;;;;;;15.40;78.20;;;;;;4256357;27;19926;-70
2021/11/13 01:12:26;;;;;;;;;;;15.40;78.10;;;;;;4259449;27;19925;-67
2021/11/13 01:14:28;;;;;;;;;;;15.40;78.00;;;;;;4251525;27;19948;-67
2021/11/13 01:16:31;;;;;;;;;;;15.40;78.10;;;;;;4255369;27;19972;-71
2021/11/13 01:18:34;;;;;;;;;;;15.40;78.10;;;;;;4246680;27;20360;-70
2021/11/13 01:20:37;;;;;;;;;;;15.40;78.20;;;;;;4259869;27;19964;-68
2021/11/13 01:22:39;;;;;;;;;;;15.40;78.20;;;;;;4248309;27;19919;-70
2021/11/13 01:24:43;;;;;;;;;;;15.40;78.00;;;;;;4251170;27;20412;-69
2021/11/13 01:26:47;;;;;;;;;;;15.40;78.10;;;;;;4255571;27;19946;-72
2021/11/13 01:28:49;;;;;;;;;;;15.30;77.90;;;;;;4247385;27;19920;-69
2021/11/13 01:30:52;;;;;;;;;;;15.30;78.20;;;;;;4259640;27;20552;-68
2021/11/13 01:32:55;;;;;;;;;;;15.40;78.10;;;;;;4247351;27;20414;-71
2021/11/13 01:34:57;;;;;;;;;;;15.30;78.00;;;;;;4251006;27;19968;-69
2021/11/13 01:37:00;;;;;;;;;;;15.30;77.90;;;;;;4255094;27;19922;-70
2021/11/13 01:39:03;;;;;;;;;;;15.30;78.00;;;;;;4246691;27;20320;-73
2021/11/13 01:41:08;;;;;;;;;;;15.30;78.00;;;;;;4254346;27;20320;-70
2021/11/13 01:43:11;;;;;;;;;;;15.30;78.50;;;;;;4264416;27;19926;-70
2021/11/13 01:45:15;;;;;;;;;;;15.30;78.30;;;;;;4255029;27;19927;-70
2021/11/13 01:47:18;;;;;;;;;;;15.30;78.20;;;;;;4257115;27;19927;-71
2021/11/13 01:49:21;;;;;;;;;;;15.30;79.10;;;;;;4246979;27;19976;-67
2021/11/13 01:51:24;;;;;;;;;;;15.30;78.70;;;;;;4250357;27;19923;-69
2021/11/13 01:53:28;;;;;;;;;;;15.30;78.70;;;;;;4247021;27;20311;-71
2021/11/13 01:55:35;;;;;;;;;;;15.30;78.70;;;;;;4248726;27;20327;-69
2021/11/13 01:57:49;;;;;;;;;;;15.30;78.80;;;;;;4256662;27;20390;-70
2021/11/13 01:59:52;;;;;;;;;;;15.30;78.70;;;;;;4247084;27;19972;-66
2021/11/13 02:01:55;;;;;;;;;;;15.30;78.40;;;;;;4260176;27;20347;-66
2021/11/13 02:03:58;;;;;;;;;;;15.20;78.30;;;;;;4249068;27;19922;-66
2021/11/13 02:06:00;;;;;;;;;;;15.30;78.70;;;;;;4253581;27;19923;-66
2021/11/13 02:08:04;;;;;;;;;;;15.30;78.80;;;;;;4254259;27;19919;-67
2021/11/13 02:10:08;;;;;;;;;;;15.30;79.20;;;;;;4242597;27;19965;-67
2021/11/13 02:12:10;;;;;;;;;;;15.20;79.00;;;;;;4258569;27;19919;-67
2021/11/13 02:14:14;;;;;;;;;;;15.20;78.60;;;;;;4247216;27;19919;-68
2021/11/13 02:16:17;;;;;;;;;;;15.30;78.90;;;;;;4249281;27;19919;-69
2021/11/13 02:18:20;;;;;;;;;;;15.20;78.50;;;;;;4256406;27;19965;-71
2021/11/13 02:20:25;;;;;;;;;;;15.30;78.90;;;;;;4246846;27;19927;-67
2021/11/13 02:22:28;;;;;;;;;;;15.20;79.10;;;;;;4257883;27;19926;-70
2021/11/13 02:24:30;;;;;;;;;;;15.20;79.00;;;;;;4249045;27;19927;-68
2021/11/13 02:26:33;;;;;;;;;;;15.30;79.10;;;;;;4249522;27;20438;-66
2021/11/13 02:28:36;;;;;;;;;;;15.20;79.40;;;;;;4257981;27;20582;-71
2021/11/13 02:30:39;;;;;;;;;;;15.20;79.30;;;;;;4246891;27;19927;-68
2021/11/13 02:32:43;;;;;;;;;;;15.20;79.10;;;;;;4240708;27;20326;-67
2021/11/13 02:34:45;;;;;;;;;;;15.20;79.20;;;;;;4248037;27;19923;-66
2021/11/13 02:36:50;;;;;;;;;;;15.20;79.00;;;;;;4247386;27;19919;-67
2021/11/13 02:38:55;;;;;;;;;;;15.20;78.80;;;;;;4252111;27;19918;-70
2021/11/13 02:40:59;;;;;;;;;;;15.20;78.80;;;;;;4263594;27;19948;-67
2021/11/13 02:43:01;;;;;;;;;;;15.20;79.00;;;;;;4259295;27;19926;-69
2021/11/13 02:45:05;;;;;;;;;;;15.20;78.80;;;;;;4263752;27;19972;-68
2021/11/13 02:47:08;;;;;;;;;;;15.20;79.20;;;;;;4262162;27;19996;-73
2021/11/13 02:49:11;;;;;;;;;;;15.20;79.10;;;;;;4252063;27;19919;-70
2021/11/13 02:51:14;;;;;;;;;;;15.20;78.90;;;;;;4257421;27;19923;-67
2021/11/13 02:53:19;;;;;;;;;;;15.20;79.10;;;;;;4250301;27;19972;-67
2021/11/13 02:55:22;;;;;;;;;;;15.20;79.40;;;;;;4260709;27;19923;-71
2021/11/13 02:57:24;;;;;;;;;;;15.20;79.10;;;;;;4262666;27;19923;-68
2021/11/13 02:59:27;;;;;;;;;;;15.20;79.20;;;;;;4253259;27;19926;-69
2021/11/13 03:01:30;;;;;;;;;;;15.20;79.20;;;;;;4263517;27;19992;-68
2021/11/13 03:03:32;;;;;;;;;;;15.20;78.90;;;;;;4254015;27;19919;-71
2021/11/13 03:05:36;;;;;;;;;;;15.20;78.90;;;;;;4259390;27;20294;-67
2021/11/13 03:07:43;;;;;;;;;;;15.20;78.80;;;;;;4265978;27;19919;-72
2021/11/13 03:09:47;;;;;;;;;;;15.20;79.10;;;;;;4256083;27;19991;-73
2021/11/13 03:11:49;;;;;;;;;;;15.20;79.00;;;;;;4250460;27;19935;-67
2021/11/13 03:13:52;;;;;;;;;;;15.20;79.00;;;;;;4257895;27;19983;-67
2021/11/13 03:15:55;;;;;;;;;;;15.20;79.40;;;;;;4253716;27;19980;-67
2021/11/13 03:17:58;;;;;;;;;;;15.20;79.30;;;;;;4250975;27;19930;-66
2021/11/13 03:20:03;;;;;;;;;;;15.20;79.30;;;;;;4260915;27;20039;-66
2021/11/13 03:22:05;;;;;;;;;;;15.20;79.50;;;;;;4249691;27;19960;-66
2021/11/13 03:24:08;;;;;;;;;;;15.20;79.60;;;;;;4257329;27;19919;-67
2021/11/13 03:26:14;;;;;;;;;;;15.20;79.40;;;;;;4255524;27;19919;-70
2021/11/13 03:28:19;;;;;;;;;;;15.20;79.50;;;;;;4252049;27;19919;-70
2021/11/13 03:30:23;;;;;;;;;;;15.20;79.70;;;;;;4261473;27;20329;-66
2021/11/13 03:32:26;;;;;;;;;;;15.20;79.30;;;;;;4249241;27;19919;-67
2021/11/13 03:34:29;;;;;;;;;;;15.10;79.20;;;;;;4256540;27;19919;-71
2021/11/13 03:36:33;;;;;;;;;;;15.20;79.60;;;;;;4253585;27;20157;-69
2021/11/13 03:38:36;;;;;;;;;;;15.10;79.50;;;;;;4250526;27;19923;-67
2021/11/13 03:40:40;;;;;;;;;;;15.20;79.10;;;;;;4260539;27;19919;-71
2021/11/13 03:42:44;;;;;;;;;;;15.10;79.50;;;;;;4249322;27;19949;-68
2021/11/13 03:44:47;;;;;;;;;;;15.20;79.30;;;;;;4251574;27;20325;-70
2021/11/13 03:46:49;;;;;;;;;;;15.10;79.50;;;;;;4249230;27;19972;-71
2021/11/13 03:48:52;;;;;;;;;;;15.10;79.40;;;;;;4249990;27;19919;-70
2021/11/13 03:50:55;;;;;;;;;;;15.10;79.30;;;;;;4263174;27;19952;-68
2021/11/13 03:52:58;;;;;;;;;;;15.20;79.30;;;;;;4254410;27;19919;-67
2021/11/13 03:55:00;;;;;;;;;;;15.10;79.10;;;;;;4256869;27;20343;-72
2021/11/13 03:57:03;;;;;;;;;;;15.10;79.10;;;;;;4256511;27;19923;-71
2021/11/13 03:59:08;;;;;;;;;;;15.10;79.70;;;;;;4250375;27;20324;-68
2021/11/13 04:01:11;;;;;;;;;;;15.10;79.30;;;;;;4254226;27;19972;-67
2021/11/13 04:03:13;;;;;;;;;;;15.10;79.40;;;;;;4266045;27;19919;-65
2021/11/13 04:05:17;;;;;;;;;;;15.10;79.10;;;;;;4259436;27;19919;-66
2021/11/13 04:07:19;;;;;;;;;;;15.10;79.60;;;;;;4258967;27;20003;-66
2021/11/13 04:09:22;;;;;;;;;;;15.20;79.40;;;;;;4265076;27;19919;-67
2021/11/13 04:11:24;;;;;;;;;;;15.20;79.00;;;;;;4262542;27;20323;-66
2021/11/13 04:13:27;;;;;;;;;;;15.10;79.10;;;;;;4249372;27;19972;-67
2021/11/13 04:15:31;;;;;;;;;;;15.10;79.20;;;;;;4253550;27;19927;-68
2021/11/13 04:17:34;;;;;;;;;;;15.10;79.10;;;;;;4236656;27;20353;-67
2021/11/13 04:19:37;;;;;;;;;;;15.10;79.30;;;;;;4248174;27;19919;-70
2021/11/13 04:21:40;;;;;;;;;;;15.10;79.20;;;;;;4252567;27;19915;-68
2021/11/13 04:23:44;;;;;;;;;;;15.10;79.70;;;;;;4265654;27;19919;-66
2021/11/13 04:25:47;;;;;;;;;;;15.10;79.60;;;;;;4260831;27;19931;-69
2021/11/13 04:27:50;;;;;;;;;;;15.20;80.10;;;;;;4257430;27;19919;-69
2021/11/13 04:29:52;;;;;;;;;;;15.10;79.50;;;;;;4247292;27;19919;-69
2021/11/13 04:31:56;;;;;;;;;;;15.10;79.50;;;;;;4252643;27;19923;-70
2021/11/13 04:34:02;;;;;;;;;;;15.10;79.30;;;;;;4248072;27;19924;-71
2021/11/13 04:38:26;;;;;;;;;;;15.10;79.70;;;;;;4255745;27;19923;-69
2021/11/13 04:40:31;;;;;;;;;;;15.10;80.00;;;;;;4250127;27;19934;-70
2021/11/13 04:42:33;;;;;;;;;;;15.10;80.00;;;;;;4262417;27;19923;-73
2021/11/13 04:44:36;;;;;;;;;;;15.10;79.70;;;;;;4264864;27;19976;-71
2021/11/13 04:46:39;;;;;;;;;;;15.10;79.50;;;;;;4256369;27;19972;-68
2021/11/13 04:48:43;;;;;;;;;;;15.10;79.30;;;;;;4258337;27;19926;-67
2021/11/13 04:50:45;;;;;;;;;;;15.10;79.40;;;;;;4263371;27;19977;-69
2021/11/13 04:52:49;;;;;;;;;;;15.10;79.70;;;;;;4250881;27;19972;-71
2021/11/13 04:54:51;;;;;;;;;;;15.10;79.60;;;;;;4265010;27;19919;-70
2021/11/13 04:56:54;;;;;;;;;;;15.10;79.50;;;;;;4260074;27;20344;-66
2021/11/13 04:58:56;;;;;;;;;;;15.10;79.80;;;;;;4257726;27;19919;-68
2021/11/13 05:00:59;;;;;;;;;;;15.10;79.60;;;;;;4266257;27;20316;-69
2021/11/13 05:03:03;;;;;;;;;;;15.10;79.50;;;;;;4255039;27;19923;-68
2021/11/13 05:05:08;;;;;;;;;;;15.10;79.70;;;;;;4266433;27;19919;-68
2021/11/13 05:07:10;;;;;;;;;;;15.10;79.70;;;;;;4261462;27;20492;-71
2021/11/13 05:09:13;;;;;;;;;;;15.10;79.70;;;;;;4255941;27;19920;-67
2021/11/13 05:11:16;;;;;;;;;;;15.10;79.60;;;;;;4251306;27;19919;-68
2021/11/13 05:13:19;;;;;;;;;;;15.10;79.20;;;;;;4260024;27;19926;-68
2021/11/13 05:15:21;;;;;;;;;;;15.10;79.00;;;;;;4247741;27;20395;-71
2021/11/13 05:17:24;;;;;;;;;;;15.10;79.20;;;;;;4250960;27;19930;-70
2021/11/13 05:19:27;;;;;;;;;;;15.10;79.60;;;;;;4256734;27;19919;-68
2021/11/13 05:21:31;;;;;;;;;;;15.10;79.60;;;;;;4249759;27;19972;-70
2021/11/13 05:23:33;;;;;;;;;;;15.10;79.40;;;;;;4260345;27;19919;-69
2021/11/13 05:25:36;;;;;;;;;;;15.10;79.80;;;;;;4248690;27;19984;-66
2021/11/13 05:27:39;;;;;;;;;;;15.10;79.70;;;;;;4251357;27;19919;-68
2021/11/13 05:29:42;;;;;;;;;;;15.10;79.60;;;;;;4257168;27;19919;-67
2021/11/13 05:31:44;;;;;;;;;;;15.10;79.20;;;;;;4247458;27;19919;-67
2021/11/13 05:33:47;;;;;;;;;;;15.10;79.20;;;;;;4248555;27;20302;-67
2021/11/13 05:35:49;;;;;;;;;;;15.10;78.90;;;;;;4263233;27;19919;-66
2021/11/13 05:37:54;;;;;;;;;;;15.10;78.90;;;;;;4254271;27;19915;-70
2021/11/13 05:39:56;;;;;;;;;;;15.10;79.00;;;;;;4258719;27;19923;-71
2021/11/13 05:41:59;;;;;;;;;;;15.10;79.10;;;;;;4247793;27;20378;-67
2021/11/13 05:44:02;;;;;;;;;;;15.10;78.80;;;;;;4252716;27;19923;-66
2021/11/13 05:46:04;;;;;;;;;;;15.10;79.00;;;;;;4249133;27;19923;-69
2021/11/13 05:48:07;;;;;;;;;;;15.10;79.10;;;;;;4250704;27;19952;-70
2021/11/13 05:50:12;;;;;;;;;;;15.10;79.20;;;;;;4253446;27;19948;-70
2021/11/13 05:52:15;;;;;;;;;;;15.10;79.40;;;;;;4249443;27;19920;-68
2021/11/13 05:54:19;;;;;;;;;;;15.10;79.70;;;;;;4250971;27;20008;-69
2021/11/13 05:56:22;;;;;;;;;;;15.10;79.60;;;;;;4260949;27;19923;-68
2021/11/13 05:58:33;;;;;;;;;;;15.10;79.30;;;;;;4262078;27;19987;-70
2021/11/13 06:00:35;;;;;;;;;;;15.10;79.00;;;;;;4234353;27;20500;-68
2021/11/13 06:02:38;;;;;;;;;;;15.00;78.90;;;;;;4264525;27;19923;-67
2021/11/13 06:04:41;;;;;;;;;;;15.10;78.70;;;;;;4254742;27;19940;-66
2021/11/13 06:06:44;;;;;;;;;;;15.10;78.90;;;;;;4248335;27;20403;-67
2021/11/13 06:08:46;;;;;;;;;;;15.10;79.30;;;;;;4248744;27;20414;-67
2021/11/13 06:10:50;;;;;;;;;;;15.10;79.20;;;;;;4259047;27;20366;-66
2021/11/13 06:12:53;;;;;;;;;;;15.10;79.30;;;;;;4263635;27;19978;-71
2021/11/13 06:14:56;;;;;;;;;;;15.10;79.10;;;;;;4254156;27;19972;-71
2021/11/13 06:16:58;;;;;;;;;;;15.10;79.10;;;;;;4259976;27;19923;-72
2021/11/13 06:19:01;;;;;;;;;;;15.10;78.90;;;;;;4262110;27;19972;-67
2021/11/13 06:21:06;;;;;;;;;;;15.10;79.00;;;;;;4252016;27;19922;-70
2021/11/13 06:23:09;;;;;;;;;;;15.10;79.30;;;;;;4265840;27;19919;-70
2021/11/13 06:25:13;;;;;;;;;;;15.10;79.70;;;;;;4254721;27;19983;-70
2021/11/13 06:27:17;;;;;;;;;;;15.10;79.40;;;;;;4240804;27;19924;-70
2021/11/13 06:29:19;;;;;;;;;;;15.00;79.60;;;;;;4261996;27;20008;-66
2021/11/13 06:31:22;;;;;;;;;;;15.10;79.40;;;;;;4251559;27;19919;-69
2021/11/13 06:33:25;;;;;;;;;;;15.10;79.60;;;;;;4263464;27;19919;-67
2021/11/13 06:35:27;;;;;;;;;;;15.10;79.10;;;;;;4255636;27;19923;-68
2021/11/13 06:37:30;;;;;;;;;;;15.10;79.20;;;;;;4258400;27;19926;-68
2021/11/13 06:39:34;;;;;;;;;;;15.10;79.60;;;;;;4261666;27;19919;-68
2021/11/13 06:41:37;;;;;;;;;;;15.10;79.50;;;;;;4251303;27;19967;-69
2021/11/13 06:43:41;;;;;;;;;;;15.10;79.70;;;;;;4246880;27;19919;-71
2021/11/13 06:45:44;;;;;;;;;;;15.00;79.80;;;;;;4257393;27;19919;-68
2021/11/13 06:47:46;;;;;;;;;;;15.10;79.70;;;;;;4263544;27;19970;-73
2021/11/13 06:49:49;;;;;;;;;;;15.10;79.70;;;;;;4261481;27;19920;-73
2021/11/13 06:51:52;;;;;;;;;;;15.00;80.00;;;;;;4250900;27;20391;-67
2021/11/13 06:53:55;;;;;;;;;;;15.00;80.20;;;;;;4246403;27;20390;-68
2021/11/13 06:55:57;;;;;;;;;;;15.10;80.00;;;;;;4252257;27;19967;-67
2021/11/13 06:58:00;;;;;;;;;;;15.10;80.00;;;;;;4252301;27;19972;-68
2021/11/13 07:00:06;;;;;;;;;;;15.00;79.90;;;;;;4246622;27;19923;-67
2021/11/13 07:02:09;;;;;;;;;;;15.00;80.20;;;;;;4258905;27;19964;-69
2021/11/13 07:04:12;;;;;;;;;;;15.00;80.20;;;;;;4246044;28;19923;-67
2021/11/13 07:06:14;;;;;;;;;;;15.00;80.00;;;;;;4250968;27;19960;-70
2021/11/13 07:08:17;;;;;;;;;;;15.10;80.10;;;;;;4255945;27;19922;-71
2021/11/13 07:10:21;;;;;;;;;;;15.10;80.40;;;;;;4257945;27;19923;-71
2021/11/13 07:12:23;;;;;;;;;;;15.00;80.60;;;;;;4258200;27;19927;-70
2021/11/13 07:14:27;;;;;;;;;;;15.10;80.80;;;;;;4246188;28;20257;-70
2021/11/13 07:16:31;;;;;;;;;;;15.10;80.30;;;;;;4251244;27;19923;-68
2021/11/13 07:18:33;;;;;;;;;;;15.00;80.50;;;;;;4256588;27;19919;-69
2021/11/13 07:20:36;;;;;;;;;;;15.10;80.30;;;;;;4267056;27;20671;-73
2021/11/13 07:22:39;;;;;;;;;;;15.10;80.00;;;;;;4259722;27;19919;-67
2021/11/13 07:24:43;;;;;;;;;;;15.00;79.90;;;;;;4245987;28;20353;-68
2021/11/13 07:26:52;;;;;;;;;;;15.00;80.50;;;;;;4249763;27;19942;-68
2021/11/13 07:29:01;;;;;;;;;;;15.00;79.90;;;;;;4254412;27;19979;-71
2021/11/13 07:31:04;;;;;;;;;;;15.10;80.20;;;;;;4246010;27;20379;-66
2021/11/13 07:33:13;;;;;;;;;;;15.00;80.60;;;;;;4241671;28;20051;-69
2021/11/13 07:35:16;;;;;;;;;;;15.10;80.40;;;;;;4246465;28;20333;-68
2021/11/13 07:37:19;;;;;;;;;;;15.10;80.00;;;;;;4251231;27;19919;-69
2021/11/13 07:39:21;;;;;;;;;;;15.10;79.70;;;;;;4252674;27;20455;-67
2021/11/13 07:41:24;;;;;;;;;;;15.00;79.70;;;;;;4246067;27;19964;-70
2021/11/13 07:43:27;;;;;;;;;;;15.10;80.00;;;;;;4257576;27;20304;-68
2021/11/13 07:45:30;;;;;;;;;;;15.00;80.30;;;;;;4262803;27;20215;-67
2021/11/13 07:47:35;;;;;;;;;;;15.00;80.10;;;;;;4258312;27;20370;-67
2021/11/13 07:49:39;;;;;;;;;;;15.00;80.20;;;;;;4253005;27;19957;-67
2021/11/13 07:51:42;;;;;;;;;;;15.10;80.20;;;;;;4245755;27;19926;-67
2021/11/13 07:53:45;;;;;;;;;;;15.00;80.00;;;;;;4253224;27;20300;-71
2021/11/13 07:55:47;;;;;;;;;;;15.10;80.60;;;;;;4265744;27;19925;-67
2021/11/13 07:57:50;;;;;;;;;;;15.10;80.10;;;;;;4268470;27;19923;-70
2021/11/13 07:59:53;;;;;;;;;;;15.10;80.30;;;;;;4256986;27;20376;-67
2021/11/13 08:01:55;;;;;;;;;;;15.10;80.20;;;;;;4248508;27;19930;-69
2021/11/13 08:04:02;;;;;;;;;;;15.10;80.00;;;;;;4260301;27;19923;-67
2021/11/13 08:06:06;;;;;;;;;;;15.00;79.90;;;;;;4248799;27;19926;-70
2021/11/13 08:08:08;;;;;;;;;;;15.10;80.20;;;;;;4252121;27;19923;-71
2021/11/13 08:10:11;;;;;;;;;;;15.10;80.10;;;;;;4256738;27;19919;-69
2021/11/13 08:12:14;;;;;;;;;;;15.10;80.00;;;;;;4256049;27;20294;-68
2021/11/13 08:14:17;;;;;;;;;;;15.00;79.90;;;;;;4259037;27;19951;-67
2021/11/13 08:16:20;;;;;;;;;;;15.10;80.10;;;;;;4258914;27;19919;-72
2021/11/13 08:18:23;;;;;;;;;;;15.10;80.30;;;;;;4253560;27;19988;-70
2021/11/13 08:20:26;;;;;;;;;;;15.10;80.20;;;;;;4245990;27;19919;-69
2021/11/13 08:22:30;;;;;;;;;;;15.10;79.60;;;;;;4264942;27;19937;-71
2021/11/13 08:24:33;;;;;;;;;;;15.10;80.00;;;;;;4259534;27;19915;-69
2021/11/13 08:26:36;;;;;;;;;;;15.10;79.90;;;;;;4265312;27;19923;-69
2021/11/13 08:28:38;;;;;;;;;;;15.10;80.10;;;;;;4271586;27;20213;-69
2021/11/13 08:30:41;;;;;;;;;;;15.20;80.20;;;;;;4268625;27;19915;-71
2021/11/13 08:32:45;;;;;;;;;;;15.20;80.30;;;;;;4264233;27;19946;-70
2021/11/13 08:34:48;;;;;;;;;;;15.30;80.20;;;;;;4267010;27;20106;-69
2021/11/13 08:36:51;;;;;;;;;;;15.40;81.10;;;;;;4246629;27;19986;-70
2021/11/13 08:38:55;;;;;;;;;;;15.40;81.20;;;;;;4265947;27;19930;-67
2021/11/13 08:40:58;;;;;;;;;;;15.40;81.20;;;;;;4259698;27;20092;-70
2021/11/13 08:43:01;;;;;;;;;;;15.40;80.50;;;;;;4273734;27;19923;-67
2021/11/13 08:45:07;;;;;;;;;;;15.40;81.30;;;;;;4271883;27;19918;-71
2021/11/13 08:47:12;;;;;;;;;;;15.50;81.20;;;;;;4268882;27;19915;-66
2021/11/13 08:49:16;;;;;;;;;;;15.40;82.30;;;;;;4251629;27;19935;-71
2021/11/13 08:51:19;;;;;;;;;;;15.50;82.60;;;;;;4273645;27;19915;-67
2021/11/13 08:53:22;;;;;;;;;;;15.50;83.40;;;;;;4269315;27;20417;-72
2021/11/13 08:55:28;;;;;;;;;;;15.50;83.80;;;;;;4268097;27;19926;-71
2021/11/13 08:57:30;;;;;;;;;;;15.50;83.60;;;;;;4258856;27;20293;-66
2021/11/13 08:59:33;;;;;;;;;;;15.50;84.00;;;;;;4261741;27;19922;-72
2021/11/13 09:01:36;;;;;;;;;;;15.60;83.60;;;;;;4265995;27;20225;-70
2021/11/13 09:03:41;;;;;;;;;;;15.60;84.10;;;;;;4264812;27;19952;-67
2021/11/13 09:05:44;;;;;;;;;;;15.60;84.00;;;;;;4266189;27;19915;-65
2021/11/13 09:07:47;;;;;;;;;;;15.60;84.30;;;;;;4273527;27;19933;-73
2021/11/13 09:09:50;;;;;;;;;;;15.60;84.50;;;;;;4269707;27;19923;-72
2021/11/13 09:11:59;;;;;;;;;;;15.60;84.00;;;;;;4263709;27;19915;-73
2021/11/13 09:14:02;;;;;;;;;;;15.60;83.90;;;;;;4264590;27;20099;-75
2021/11/13 09:16:06;;;;;;;;;;;15.60;84.50;;;;;;4263696;27;19915;-73
2021/11/13 09:18:10;;;;;;;;;;;15.70;84.00;;;;;;4269382;27;19951;-72
2021/11/13 09:20:13;;;;;;;;;;;15.70;84.70;;;;;;4250072;27;19920;-72
2021/11/13 09:22:15;;;;;;;;;;;15.70;84.20;;;;;;4260299;27;19919;-72
2021/11/13 09:24:18;;;;;;;;;;;15.70;85.00;;;;;;4262524;27;19922;-73
2021/11/13 09:26:22;;;;;;;;;;;15.70;85.10;;;;;;4262868;27;19995;-74
2021/11/13 09:28:26;;;;;;;;;;;15.70;84.80;;;;;;4267401;27;19922;-73
2021/11/13 09:30:30;;;;;;;;;;;15.80;85.20;;;;;;4264000;27;20204;-70
2021/11/13 09:32:33;;;;;;;;;;;15.80;85.30;;;;;;4261373;27;19915;-71
2021/11/13 09:34:41;;;;;;;;;;;15.80;86.50;;;;;;4257313;27;19923;-72
2021/11/13 09:36:44;;;;;;;;;;;15.90;85.20;;;;;;4266605;27;19929;-75
2021/11/13 09:38:47;;;;;;;;;;;16.00;85.90;;;;;;4261907;27;20127;-75
2021/11/13 09:40:50;;;;;;;;;;;16.00;85.80;;;;;;4259680;27;19927;-71
2021/11/13 09:42:55;;;;;;;;;;;16.00;86.40;;;;;;4261764;27;19915;-73
2021/11/13 09:44:59;;;;;;;;;;;16.00;87.00;;;;;;4264426;27;19915;-72
2021/11/13 09:47:04;;;;;;;;;;;16.10;87.00;;;;;;4261358;27;19937;-73
2021/11/13 09:49:06;;;;;;;;;;;16.10;87.20;;;;;;4270328;27;19921;-71
2021/11/13 09:51:10;;;;;;;;;;;16.00;87.20;;;;;;4268494;27;19951;-73
2021/11/13 09:53:13;;;;;;;;;;;16.10;87.50;;;;;;4261921;27;19922;-75
2021/11/13 09:55:18;;;;;;;;;;;16.10;87.50;;;;;;4271996;27;19914;-72
2021/11/13 09:57:22;;;;;;;;;;;16.10;87.20;;;;;;4271292;27;19921;-70
2021/11/13 09:59:25;;;;;;;;;;;16.10;87.00;;;;;;4259785;27;19915;-73
2021/11/13 10:01:31;;;;;;;;;;;16.10;87.10;;;;;;4262482;27;19923;-71
2021/11/13 10:03:34;;;;;;;;;;;16.10;86.80;;;;;;4261043;27;19915;-70
2021/11/13 10:05:37;;;;;;;;;;;16.10;86.70;;;;;;4274001;27;19915;-70
2021/11/13 10:07:40;;;;;;;;;;;16.10;86.20;;;;;;4268953;27;19919;-71
2021/11/13 10:09:43;;;;;;;;;;;16.10;86.40;;;;;;4265961;27;19915;-76
2021/11/13 10:11:48;;;;;;;;;;;16.20;86.30;;;;;;4262596;27;19915;-76
2021/11/13 10:13:52;;;;;;;;;;;16.20;86.60;;;;;;4272304;27;19921;-74
2021/11/13 10:15:55;;;;;;;;;;;16.20;86.60;;;;;;4251563;27;20302;-73
2021/11/13 10:18:14;;;;;;;;;;;16.20;86.60;;;;;;4265435;27;20073;-72
2021/11/13 10:20:21;;;;;;;;;;;16.20;86.70;;;;;;4261045;27;19915;-73
2021/11/13 10:22:41;;;;;;;;;;;16.20;87.00;;;;;;4258431;27;19915;-75
2021/11/13 10:24:46;;;;;;;;;;;16.20;87.30;;;;;;4264197;27;19930;-75
2021/11/13 10:26:50;;;;;;;;;;;16.20;87.70;;;;;;4267422;27;19925;-75
2021/11/13 10:28:55;;;;;;;;;;;16.20;87.00;;;;;;4266108;27;20390;-74
2021/11/13 10:31:06;;;;;;;;;;;16.20;87.20;;;;;;4244065;27;19916;-72
2021/11/13 10:33:12;;;;;;;;;;;16.20;87.40;;;;;;4263658;27;19914;-73
2021/11/13 10:35:17;;;;;;;;;;;16.20;87.50;;;;;;4263741;27;19930;-76
2021/11/13 10:37:23;;;;;;;;;;;16.30;87.40;;;;;;4267701;27;19914;-71
2021/11/13 10:39:31;;;;;;;;;;;16.30;87.70;;;;;;4265261;27;19915;-72
2021/11/13 10:41:46;;;;;;;;;;;16.20;89.10;;;;;;4245671;27;19924;-72
2021/11/13 10:43:50;;;;;;;;;;;16.20;88.70;;;;;;4258173;27;19927;-73
2021/11/13 10:45:58;;;;;;;;;;;16.30;88.20;;;;;;4268919;27;20088;-74
2021/11/13 10:48:18;;;;;;;;;;;16.30;88.80;;;;;;4250610;27;19915;-72
2021/11/13 10:50:25;;;;;;;;;;;16.30;88.30;;;;;;4260989;27;20237;-73
2021/11/13 10:52:27;;;;;;;;;;;16.30;88.70;;;;;;4268791;27;19915;-71
2021/11/13 10:54:31;;;;;;;;;;;16.30;88.80;;;;;;4263533;27;20106;-72
2021/11/13 10:56:40;;;;;;;;;;;16.30;88.50;;;;;;4256493;27;19915;-72
2021/11/13 10:58:52;;;;;;;;;;;16.30;88.30;;;;;;4258276;27;19953;-73
2021/11/13 11:00:56;;;;;;;;;;;16.30;88.60;;;;;;4245342;28;20036;-72
2021/11/13 11:03:03;;;;;;;;;;;16.30;89.10;;;;;;4255565;28;19915;-71
2021/11/13 11:05:13;;;;;;;;;;;16.30;88.90;;;;;;4270340;27;19938;-73
2021/11/13 11:07:24;;;;;;;;;;;16.30;88.50;;;;;;4236864;28;19946;-72
2021/11/13 11:09:29;;;;;;;;;;;16.40;88.10;;;;;;4265663;27;19919;-74
2021/11/13 11:11:35;;;;;;;;;;;16.40;88.30;;;;;;4248963;27;19977;-77
2021/11/13 11:13:47;;;;;;;;;;;16.40;89.10;;;;;;4252629;28;20014;-71
2021/11/13 11:15:52;;;;;;;;;;;16.40;89.70;;;;;;4266015;27;19919;-72
2021/11/13 11:17:56;;;;;;;;;;;16.40;89.30;;;;;;4270617;27;19915;-73
2021/11/13 11:20:03;;;;;;;;;;;16.40;89.00;;;;;;4268557;27;19960;-73
2021/11/13 11:22:08;;;;;;;;;;;16.40;88.40;;;;;;4259602;27;19940;-72
2021/11/13 11:24:22;;;;;;;;;;;16.40;88.40;;;;;;4259646;27;19923;-71
2021/11/13 11:26:27;;;;;;;;;;;16.40;89.20;;;;;;4261398;27;19927;-71
2021/11/13 11:28:55;;;;;;;;;;;16.50;89.50;;;;;;4255609;27;20011;-71
2021/11/13 11:30:59;;;;;;;;;;;16.50;89.30;;;;;;4263296;27;19922;-72
2021/11/13 11:33:06;;;;;;;;;;;16.50;89.80;;;;;;4244241;27;20142;-73
2021/11/13 11:35:16;;;;;;;;;;;16.50;90.00;;;;;;4262879;27;19952;-72
2021/11/13 11:37:23;;;;;;;;;;;16.50;90.00;;;;;;4268664;27;20025;-74
2021/11/13 11:39:30;;;;;;;;;;;16.60;90.00;;;;;;4273955;27;19919;-75
2021/11/13 11:41:34;;;;;;;;;;;16.60;90.20;;;;;;4272433;27;19915;-72
2021/11/13 11:43:38;;;;;;;;;;;16.60;90.10;;;;;;4272729;27;20293;-73
2021/11/13 11:45:42;;;;;;;;;;;16.60;89.90;;;;;;4247976;27;19919;-71
2021/11/13 11:47:47;;;;;;;;;;;16.60;89.60;;;;;;4268963;27;19951;-71
2021/11/13 11:49:51;;;;;;;;;;;16.60;90.00;;;;;;4271070;27;19915;-72
2021/11/13 11:51:55;;;;;;;;;;;16.70;90.00;;;;;;4266898;27;19919;-70
2021/11/13 11:54:00;;;;;;;;;;;16.70;90.00;;;;;;4257279;27;19986;-69
2021/11/13 11:56:06;;;;;;;;;;;16.70;89.70;;;;;;4263192;27;19960;-72
2021/11/13 11:58:12;;;;;;;;;;;16.70;90.00;;;;;;4270969;27;19930;-67
2021/11/13 12:00:17;;;;;;;;;;;16.70;90.00;;;;;;4274530;27;19990;-68
2021/11/13 12:02:21;;;;;;;;;;;16.80;90.00;;;;;;4264324;27;19925;-69